Skip Navigation Links Skip Navigation Links

Current Weather

Eureka, Nunavut

For information only: do not use for flight planning or navigation.
Latest weather
Observation time Saturday, October 21, 2017 2:00 PM CDT
Local time Saturday, October 21, 2017 2:33 PM CDT
Flight conditions Visual Meteorological Conditions
Winds
Wind speed calm
Visibility 15 mi.
Present weather light snow
Sky condition
Ceiling 4,400 ft. broken clouds
Cloud layer broken clouds 4,400 ft.
Cloud layer broken clouds 7,000 ft.
Cloud layer broken clouds 10,000 ft.
Temperature -13°F
Dewpoint -18°F
Altimeter 30.06 in.Hg
Derived measurements
Relative humidity 76%
Wind chill -13°F
Density altitude -5301 ft.
Sea-level pressure 30.06 in.Hg
METAR CWEU 211900Z 00000KT 15SM -SN BKN044 BKN070 BKN100 M25/M28 A3006 RMK SC7AC1AS1 AC TR AS TR SLP181

Settings

Location code

InnerDrive.Weather 4.0.6144.1 Release CLR 4.0.30319.36366
Copyright ©2015 Inner Drive Technology. All rights reserved. Portions Copyright ©1986-2015 David Braverman.

Find weather

Site navigation


Skip Navigation Links

Place info

Page info

PayPal - The safer, easier way to pay online!

Return home.

Copyright ©2017 Inner Drive Technology. Purveyors of fine, hand-crafted computer software. Page printed 2017-10-21T19:33:50 UTC.